X  Tanca Dades meteorològiques de l'aviació METAR     LGTS Thessaloniki Macedonia International Airport
Temperatura
30°C Temperatura
20°C Rosada
55% Humitat



Vent
0 KM/H
0 MPH
0 M/S
0 NUS



Tranquil
N
Condicions actuals

Parcialment ennuvolat Parcialment ennuvolat
Pressió 1009.82 (hPa) - 29.82 (inHg)
Visibilitat 6 (milla) - 9.7 (km)
Aeroport
Codi aeroport LGTS

Ubicació: Thessaloniki Macedonia International Airport
Distància: 85 (km)

Metar:
LGTS 240550Z 00000KT 9999 FEW030 30/20 Q1010 NOSIG

Temps: 24-07-2024 08:50 EEST